sensor_id;sensor_type;location;lat;lon;timestamp;P1;durP1;ratioP1;P2;durP2;ratioP2
15142;SDS011;7672;50.834;6.286;2023-08-12T00:01:11;11.40;;;9.55;;
15142;SDS011;7672;50.834;6.286;2023-08-12T00:03:38;11.50;;;10.30;;
15142;SDS011;7672;50.834;6.286;2023-08-12T00:06:05;11.50;;;10.25;;
15142;SDS011;7672;50.834;6.286;2023-08-12T00:08:33;12.95;;;11.18;;
15142;SDS011;7672;50.834;6.286;2023-08-12T00:11:00;15.32;;;10.23;;
15142;SDS011;7672;50.834;6.286;2023-08-12T00:13:27;11.50;;;10.30;;
15142;SDS011;7672;50.834;6.286;2023-08-12T00:15:54;10.80;;;9.77;;
15142;SDS011;7672;50.834;6.286;2023-08-12T00:18:22;11.48;;;10.25;;
15142;SDS011;7672;50.834;6.286;2023-08-12T00:20:49;11.65;;;10.40;;
15142;SDS011;7672;50.834;6.286;2023-08-12T00:23:17;11.32;;;10.25;;
15142;SDS011;7672;50.834;6.286;2023-08-12T00:25:45;11.02;;;10.00;;
15142;SDS011;7672;50.834;6.286;2023-08-12T00:28:12;12.70;;;10.63;;
15142;SDS011;7672;50.834;6.286;2023-08-12T00:30:40;11.50;;;10.32;;
15142;SDS011;7672;50.834;6.286;2023-08-12T00:33:07;11.20;;;10.10;;
15142;SDS011;7672;50.834;6.286;2023-08-12T00:35:35;13.23;;;10.90;;
15142;SDS011;7672;50.834;6.286;2023-08-12T00:38:02;11.32;;;10.05;;
15142;SDS011;7672;50.834;6.286;2023-08-12T00:40:29;11.70;;;10.52;;
15142;SDS011;7672;50.834;6.286;2023-08-12T00:42:56;11.13;;;9.93;;
15142;SDS011;7672;50.834;6.286;2023-08-12T00:45:23;11.63;;;10.45;;
15142;SDS011;7672;50.834;6.286;2023-08-12T00:47:51;12.25;;;9.85;;
15142;SDS011;7672;50.834;6.286;2023-08-12T00:50:18;11.85;;;10.65;;
15142;SDS011;7672;50.834;6.286;2023-08-12T00:52:46;14.07;;;10.18;;
15142;SDS011;7672;50.834;6.286;2023-08-12T00:55:15;11.82;;;10.02;;
15142;SDS011;7672;50.834;6.286;2023-08-12T00:57:44;12.18;;;10.00;;
15142;SDS011;7672;50.834;6.286;2023-08-12T01:00:11;11.75;;;9.52;;
15142;SDS011;7672;50.834;6.286;2023-08-12T01:02:42;12.88;;;9.70;;
15142;SDS011;7672;50.834;6.286;2023-08-12T01:05:15;12.13;;;10.07;;
15142;SDS011;7672;50.834;6.286;2023-08-12T01:07:43;10.95;;;9.85;;
15142;SDS011;7672;50.834;6.286;2023-08-12T01:10:12;10.90;;;9.80;;
15142;SDS011;7672;50.834;6.286;2023-08-12T01:12:52;14.75;;;10.07;;
15142;SDS011;7672;50.834;6.286;2023-08-12T01:15:32;14.00;;;9.65;;
15142;SDS011;7672;50.834;6.286;2023-08-12T01:18:01;19.50;;;9.98;;
15142;SDS011;7672;50.834;6.286;2023-08-12T01:20:30;11.38;;;10.23;;
15142;SDS011;7672;50.834;6.286;2023-08-12T01:23:08;11.93;;;10.32;;
15142;SDS011;7672;50.834;6.286;2023-08-12T01:25:42;14.35;;;9.63;;
15142;SDS011;7672;50.834;6.286;2023-08-12T01:28:09;29.73;;;10.05;;
15142;SDS011;7672;50.834;6.286;2023-08-12T01:30:43;32.80;;;9.73;;
15142;SDS011;7672;50.834;6.286;2023-08-12T01:33:40;10.75;;;9.32;;
15142;SDS011;7672;50.834;6.286;2023-08-12T01:36:23;16.20;;;9.50;;
15142;SDS011;7672;50.834;6.286;2023-08-12T01:38:53;15.40;;;8.93;;
15142;SDS011;7672;50.834;6.286;2023-08-12T01:41:29;10.57;;;8.40;;
15142;SDS011;7672;50.834;6.286;2023-08-12T01:43:56;13.52;;;9.07;;
15142;SDS011;7672;50.834;6.286;2023-08-12T01:46:23;9.32;;;8.40;;
15142;SDS011;7672;50.834;6.286;2023-08-12T01:48:51;11.27;;;8.90;;
15142;SDS011;7672;50.834;6.286;2023-08-12T01:51:18;10.15;;;8.70;;
15142;SDS011;7672;50.834;6.286;2023-08-12T01:53:45;11.15;;;8.82;;
15142;SDS011;7672;50.834;6.286;2023-08-12T01:56:12;13.02;;;8.25;;
15142;SDS011;7672;50.834;6.286;2023-08-12T01:58:39;11.23;;;8.23;;
15142;SDS011;7672;50.834;6.286;2023-08-12T02:01:06;10.13;;;8.57;;
15142;SDS011;7672;50.834;6.286;2023-08-12T02:03:33;10.00;;;9.02;;
15142;SDS011;7672;50.834;6.286;2023-08-12T02:06:01;9.82;;;8.43;;
15142;SDS011;7672;50.834;6.286;2023-08-12T02:08:28;11.30;;;8.70;;
15142;SDS011;7672;50.834;6.286;2023-08-12T02:10:55;17.50;;;9.63;;
15142;SDS011;7672;50.834;6.286;2023-08-12T02:13:22;21.17;;;9.23;;
15142;SDS011;7672;50.834;6.286;2023-08-12T02:15:49;11.38;;;8.63;;
15142;SDS011;7672;50.834;6.286;2023-08-12T02:18:16;9.50;;;8.45;;
15142;SDS011;7672;50.834;6.286;2023-08-12T02:20:43;10.10;;;8.10;;
15142;SDS011;7672;50.834;6.286;2023-08-12T02:23:13;14.90;;;9.02;;
15142;SDS011;7672;50.834;6.286;2023-08-12T02:25:40;8.65;;;7.75;;
15142;SDS011;7672;50.834;6.286;2023-08-12T02:28:07;10.55;;;7.90;;
15142;SDS011;7672;50.834;6.286;2023-08-12T02:30:34;9.75;;;8.85;;
15142;SDS011;7672;50.834;6.286;2023-08-12T02:33:01;9.27;;;8.18;;
15142;SDS011;7672;50.834;6.286;2023-08-12T02:35:29;9.18;;;8.35;;
15142;SDS011;7672;50.834;6.286;2023-08-12T02:37:56;9.13;;;8.05;;
15142;SDS011;7672;50.834;6.286;2023-08-12T02:40:23;9.95;;;7.80;;
15142;SDS011;7672;50.834;6.286;2023-08-12T02:42:50;9.13;;;7.57;;
15142;SDS011;7672;50.834;6.286;2023-08-12T02:45:17;9.13;;;7.95;;
15142;SDS011;7672;50.834;6.286;2023-08-12T02:47:44;12.50;;;8.10;;
15142;SDS011;7672;50.834;6.286;2023-08-12T02:50:12;9.07;;;7.13;;
15142;SDS011;7672;50.834;6.286;2023-08-12T02:52:39;10.32;;;7.63;;
15142;SDS011;7672;50.834;6.286;2023-08-12T02:55:06;7.78;;;7.05;;
15142;SDS011;7672;50.834;6.286;2023-08-12T02:57:33;9.15;;;7.63;;
15142;SDS011;7672;50.834;6.286;2023-08-12T03:00:00;8.27;;;7.47;;
15142;SDS011;7672;50.834;6.286;2023-08-12T03:02:28;19.67;;;7.95;;
15142;SDS011;7672;50.834;6.286;2023-08-12T03:04:55;8.10;;;7.30;;
15142;SDS011;7672;50.834;6.286;2023-08-12T03:07:22;6.97;;;6.32;;
15142;SDS011;7672;50.834;6.286;2023-08-12T03:09:50;7.28;;;6.40;;
15142;SDS011;7672;50.834;6.286;2023-08-12T03:12:17;8.93;;;6.47;;
15142;SDS011;7672;50.834;6.286;2023-08-12T03:14:44;8.35;;;6.28;;
15142;SDS011;7672;50.834;6.286;2023-08-12T03:17:11;6.45;;;5.47;;
15142;SDS011;7672;50.834;6.286;2023-08-12T03:19:40;8.23;;;6.35;;
15142;SDS011;7672;50.834;6.286;2023-08-12T03:22:07;8.90;;;6.45;;
15142;SDS011;7672;50.834;6.286;2023-08-12T03:24:37;6.95;;;6.30;;
15142;SDS011;7672;50.834;6.286;2023-08-12T03:27:04;7.10;;;6.40;;
15142;SDS011;7672;50.834;6.286;2023-08-12T03:29:31;8.93;;;6.22;;
15142;SDS011;7672;50.834;6.286;2023-08-12T03:31:59;7.78;;;6.35;;
15142;SDS011;7672;50.834;6.286;2023-08-12T03:34:27;8.52;;;6.13;;
15142;SDS011;7672;50.834;6.286;2023-08-12T03:36:58;7.20;;;5.72;;
15142;SDS011;7672;50.834;6.286;2023-08-12T03:39:26;6.13;;;5.63;;
15142;SDS011;7672;50.834;6.286;2023-08-12T03:41:53;7.88;;;6.20;;
15142;SDS011;7672;50.834;6.286;2023-08-12T03:44:21;8.00;;;6.00;;
15142;SDS011;7672;50.834;6.286;2023-08-12T03:46:48;5.68;;;5.18;;
15142;SDS011;7672;50.834;6.286;2023-08-12T03:49:15;6.00;;;5.22;;
15142;SDS011;7672;50.834;6.286;2023-08-12T03:51:45;6.72;;;5.50;;
15142;SDS011;7672;50.834;6.286;2023-08-12T03:54:12;5.82;;;5.10;;
15142;SDS011;7672;50.834;6.286;2023-08-12T03:56:39;6.07;;;5.47;;
15142;SDS011;7672;50.834;6.286;2023-08-12T03:59:06;6.00;;;4.90;;
15142;SDS011;7672;50.834;6.286;2023-08-12T04:01:35;8.90;;;5.40;;
15142;SDS011;7672;50.834;6.286;2023-08-12T04:04:03;15.68;;;5.90;;
15142;SDS011;7672;50.834;6.286;2023-08-12T04:06:31;9.88;;;5.22;;
15142;SDS011;7672;50.834;6.286;2023-08-12T04:08:58;5.10;;;4.60;;
15142;SDS011;7672;50.834;6.286;2023-08-12T04:11:25;7.05;;;4.38;;
15142;SDS011;7672;50.834;6.286;2023-08-12T04:13:52;5.53;;;4.63;;
15142;SDS011;7672;50.834;6.286;2023-08-12T04:16:19;6.72;;;4.93;;
15142;SDS011;7672;50.834;6.286;2023-08-12T04:18:47;11.57;;;5.20;;
15142;SDS011;7672;50.834;6.286;2023-08-12T04:21:14;19.65;;;6.30;;
15142;SDS011;7672;50.834;6.286;2023-08-12T04:23:41;28.30;;;5.93;;
15142;SDS011;7672;50.834;6.286;2023-08-12T04:26:08;22.25;;;5.35;;
15142;SDS011;7672;50.834;6.286;2023-08-12T04:28:35;6.57;;;4.82;;
15142;SDS011;7672;50.834;6.286;2023-08-12T04:31:05;5.68;;;5.18;;
15142;SDS011;7672;50.834;6.286;2023-08-12T04:33:36;7.13;;;4.85;;
15142;SDS011;7672;50.834;6.286;2023-08-12T04:36:03;6.43;;;4.72;;
15142;SDS011;7672;50.834;6.286;2023-08-12T04:38:31;13.25;;;5.40;;
15142;SDS011;7672;50.834;6.286;2023-08-12T04:41:00;25.45;;;6.00;;
15142;SDS011;7672;50.834;6.286;2023-08-12T04:43:27;6.57;;;4.85;;
15142;SDS011;7672;50.834;6.286;2023-08-12T04:45:54;6.90;;;5.00;;
15142;SDS011;7672;50.834;6.286;2023-08-12T04:48:21;5.38;;;4.88;;
15142;SDS011;7672;50.834;6.286;2023-08-12T04:50:48;4.97;;;4.57;;
15142;SDS011;7672;50.834;6.286;2023-08-12T04:53:17;5.72;;;4.22;;
15142;SDS011;7672;50.834;6.286;2023-08-12T04:55:44;4.40;;;3.80;;
15142;SDS011;7672;50.834;6.286;2023-08-12T04:58:13;11.02;;;4.22;;
15142;SDS011;7672;50.834;6.286;2023-08-12T05:00:41;8.07;;;4.25;;
15142;SDS011;7672;50.834;6.286;2023-08-12T05:03:08;3.53;;;3.20;;
15142;SDS011;7672;50.834;6.286;2023-08-12T05:05:35;4.38;;;3.40;;
15142;SDS011;7672;50.834;6.286;2023-08-12T05:08:02;5.40;;;3.33;;
15142;SDS011;7672;50.834;6.286;2023-08-12T05:10:31;6.93;;;4.13;;
15142;SDS011;7672;50.834;6.286;2023-08-12T05:12:58;6.40;;;3.90;;
15142;SDS011;7672;50.834;6.286;2023-08-12T05:15:26;14.52;;;4.18;;
15142;SDS011;7672;50.834;6.286;2023-08-12T05:17:54;4.50;;;3.65;;
15142;SDS011;7672;50.834;6.286;2023-08-12T05:20:22;8.30;;;3.63;;
15142;SDS011;7672;50.834;6.286;2023-08-12T05:22:49;11.65;;;4.45;;
15142;SDS011;7672;50.834;6.286;2023-08-12T05:25:16;4.68;;;3.85;;
15142;SDS011;7672;50.834;6.286;2023-08-12T05:27:43;3.95;;;3.55;;
15142;SDS011;7672;50.834;6.286;2023-08-12T05:30:10;11.90;;;3.97;;
15142;SDS011;7672;50.834;6.286;2023-08-12T05:32:38;6.55;;;4.45;;
15142;SDS011;7672;50.834;6.286;2023-08-12T05:35:05;7.57;;;3.55;;
15142;SDS011;7672;50.834;6.286;2023-08-12T05:37:32;15.52;;;4.68;;
15142;SDS011;7672;50.834;6.286;2023-08-12T05:39:59;5.70;;;3.65;;
15142;SDS011;7672;50.834;6.286;2023-08-12T05:42:27;9.63;;;4.53;;
15142;SDS011;7672;50.834;6.286;2023-08-12T05:44:54;5.38;;;3.60;;
15142;SDS011;7672;50.834;6.286;2023-08-12T05:47:21;8.10;;;3.90;;
15142;SDS011;7672;50.834;6.286;2023-08-12T05:49:48;5.13;;;3.50;;
15142;SDS011;7672;50.834;6.286;2023-08-12T05:52:15;13.27;;;3.95;;
15142;SDS011;7672;50.834;6.286;2023-08-12T05:54:42;3.80;;;3.47;;
15142;SDS011;7672;50.834;6.286;2023-08-12T05:57:09;3.75;;;3.45;;
15142;SDS011;7672;50.834;6.286;2023-08-12T05:59:36;6.07;;;3.75;;
15142;SDS011;7672;50.834;6.286;2023-08-12T06:02:03;5.18;;;3.90;;
15142;SDS011;7672;50.834;6.286;2023-08-12T06:04:31;4.00;;;3.47;;
15142;SDS011;7672;50.834;6.286;2023-08-12T06:06:58;3.50;;;3.20;;
15142;SDS011;7672;50.834;6.286;2023-08-12T06:09:25;5.88;;;3.72;;
15142;SDS011;7672;50.834;6.286;2023-08-12T06:11:52;7.13;;;3.80;;
15142;SDS011;7672;50.834;6.286;2023-08-12T06:14:19;3.85;;;3.47;;
15142;SDS011;7672;50.834;6.286;2023-08-12T06:16:46;4.18;;;3.70;;
15142;SDS011;7672;50.834;6.286;2023-08-12T06:19:13;3.95;;;3.65;;
15142;SDS011;7672;50.834;6.286;2023-08-12T06:21:40;6.05;;;4.00;;
15142;SDS011;7672;50.834;6.286;2023-08-12T06:24:07;4.13;;;3.70;;
15142;SDS011;7672;50.834;6.286;2023-08-12T06:26:34;3.70;;;3.40;;
15142;SDS011;7672;50.834;6.286;2023-08-12T06:29:01;4.00;;;3.50;;
15142;SDS011;7672;50.834;6.286;2023-08-12T06:31:31;12.05;;;3.78;;
15142;SDS011;7672;50.834;6.286;2023-08-12T06:33:58;5.18;;;3.13;;
15142;SDS011;7672;50.834;6.286;2023-08-12T06:36:25;16.90;;;3.95;;
15142;SDS011;7672;50.834;6.286;2023-08-12T06:38:53;9.88;;;4.03;;
15142;SDS011;7672;50.834;6.286;2023-08-12T06:41:20;3.85;;;3.33;;
15142;SDS011;7672;50.834;6.286;2023-08-12T06:43:47;5.00;;;3.53;;
15142;SDS011;7672;50.834;6.286;2023-08-12T06:46:14;7.63;;;3.65;;
15142;SDS011;7672;50.834;6.286;2023-08-12T06:48:41;13.00;;;4.30;;
15142;SDS011;7672;50.834;6.286;2023-08-12T06:51:08;3.95;;;3.00;;
15142;SDS011;7672;50.834;6.286;2023-08-12T06:53:38;4.18;;;2.95;;
15142;SDS011;7672;50.834;6.286;2023-08-12T06:56:06;5.20;;;3.20;;
15142;SDS011;7672;50.834;6.286;2023-08-12T06:58:33;3.03;;;2.72;;
15142;SDS011;7672;50.834;6.286;2023-08-12T07:01:00;6.10;;;2.50;;
15142;SDS011;7672;50.834;6.286;2023-08-12T07:03:27;10.07;;;2.70;;
15142;SDS011;7672;50.834;6.286;2023-08-12T07:05:54;3.85;;;2.17;;
15142;SDS011;7672;50.834;6.286;2023-08-12T07:08:21;3.00;;;2.33;;
15142;SDS011;7672;50.834;6.286;2023-08-12T07:10:49;7.07;;;2.47;;
15142;SDS011;7672;50.834;6.286;2023-08-12T07:13:16;4.88;;;3.10;;
15142;SDS011;7672;50.834;6.286;2023-08-12T07:15:43;3.03;;;2.80;;
15142;SDS011;7672;50.834;6.286;2023-08-12T07:18:10;4.70;;;2.67;;
15142;SDS011;7672;50.834;6.286;2023-08-12T07:20:37;4.25;;;2.40;;
15142;SDS011;7672;50.834;6.286;2023-08-12T07:23:04;2.47;;;2.28;;
15142;SDS011;7672;50.834;6.286;2023-08-12T07:25:31;2.30;;;2.10;;
15142;SDS011;7672;50.834;6.286;2023-08-12T07:27:58;1.92;;;1.70;;
15142;SDS011;7672;50.834;6.286;2023-08-12T07:30:26;2.00;;;1.48;;
15142;SDS011;7672;50.834;6.286;2023-08-12T07:32:53;4.88;;;2.03;;
15142;SDS011;7672;50.834;6.286;2023-08-12T07:35:20;7.32;;;2.80;;
15142;SDS011;7672;50.834;6.286;2023-08-12T07:37:47;2.17;;;1.98;;
15142;SDS011;7672;50.834;6.286;2023-08-12T07:40:14;3.40;;;2.30;;
15142;SDS011;7672;50.834;6.286;2023-08-12T07:42:41;2.55;;;2.08;;
15142;SDS011;7672;50.834;6.286;2023-08-12T07:45:08;2.65;;;2.45;;
15142;SDS011;7672;50.834;6.286;2023-08-12T07:47:36;3.10;;;2.80;;
15142;SDS011;7672;50.834;6.286;2023-08-12T07:50:06;3.10;;;2.80;;
15142;SDS011;7672;50.834;6.286;2023-08-12T07:52:33;8.93;;;3.78;;
15142;SDS011;7672;50.834;6.286;2023-08-12T07:55:01;3.67;;;2.92;;
15142;SDS011;7672;50.834;6.286;2023-08-12T07:57:28;5.18;;;2.88;;
15142;SDS011;7672;50.834;6.286;2023-08-12T07:59:55;2.70;;;2.30;;
15142;SDS011;7672;50.834;6.286;2023-08-12T08:02:22;2.45;;;2.25;;
15142;SDS011;7672;50.834;6.286;2023-08-12T08:04:50;4.03;;;2.00;;
15142;SDS011;7672;50.834;6.286;2023-08-12T08:07:17;6.43;;;2.78;;
15142;SDS011;7672;50.834;6.286;2023-08-12T08:09:44;8.18;;;1.80;;
15142;SDS011;7672;50.834;6.286;2023-08-12T08:12:11;1.80;;;1.70;;
15142;SDS011;7672;50.834;6.286;2023-08-12T08:14:39;1.83;;;1.70;;
15142;SDS011;7672;50.834;6.286;2023-08-12T08:17:06;1.75;;;1.63;;
15142;SDS011;7672;50.834;6.286;2023-08-12T08:19:34;2.47;;;1.83;;
15142;SDS011;7672;50.834;6.286;2023-08-12T08:22:01;1.70;;;1.60;;
15142;SDS011;7672;50.834;6.286;2023-08-12T08:24:29;2.00;;;1.80;;
15142;SDS011;7672;50.834;6.286;2023-08-12T08:26:56;1.65;;;1.52;;
15142;SDS011;7672;50.834;6.286;2023-08-12T08:29:23;4.72;;;1.65;;
15142;SDS011;7672;50.834;6.286;2023-08-12T08:31:51;9.18;;;2.35;;
15142;SDS011;7672;50.834;6.286;2023-08-12T08:34:18;2.17;;;1.70;;
15142;SDS011;7672;50.834;6.286;2023-08-12T08:36:45;2.80;;;1.35;;
15142;SDS011;7672;50.834;6.286;2023-08-12T08:39:12;2.53;;;1.80;;
15142;SDS011;7672;50.834;6.286;2023-08-12T08:41:39;2.38;;;1.60;;
15142;SDS011;7672;50.834;6.286;2023-08-12T08:44:08;2.72;;;1.70;;
15142;SDS011;7672;50.834;6.286;2023-08-12T08:46:36;2.10;;;1.50;;
15142;SDS011;7672;50.834;6.286;2023-08-12T08:49:04;1.60;;;1.50;;
15142;SDS011;7672;50.834;6.286;2023-08-12T08:51:32;3.53;;;1.75;;
15142;SDS011;7672;50.834;6.286;2023-08-12T08:53:59;1.60;;;1.50;;
15142;SDS011;7672;50.834;6.286;2023-08-12T08:56:31;1.50;;;1.40;;
15142;SDS011;7672;50.834;6.286;2023-08-12T08:59:00;2.75;;;1.42;;
15142;SDS011;7672;50.834;6.286;2023-08-12T09:01:28;2.20;;;1.33;;
15142;SDS011;7672;50.834;6.286;2023-08-12T09:03:57;2.28;;;1.50;;
15142;SDS011;7672;50.834;6.286;2023-08-12T09:06:25;2.72;;;1.35;;
15142;SDS011;7672;50.834;6.286;2023-08-12T09:08:54;1.25;;;1.15;;
15142;SDS011;7672;50.834;6.286;2023-08-12T09:11:22;1.52;;;1.42;;
15142;SDS011;7672;50.834;6.286;2023-08-12T09:13:50;1.40;;;1.30;;
15142;SDS011;7672;50.834;6.286;2023-08-12T09:16:17;1.30;;;1.20;;
15142;SDS011;7672;50.834;6.286;2023-08-12T09:18:45;1.75;;;1.30;;
15142;SDS011;7672;50.834;6.286;2023-08-12T09:21:12;1.30;;;1.30;;
15142;SDS011;7672;50.834;6.286;2023-08-12T09:23:40;1.45;;;1.35;;
15142;SDS011;7672;50.834;6.286;2023-08-12T09:26:18;1.30;;;1.20;;
15142;SDS011;7672;50.834;6.286;2023-08-12T09:28:47;1.48;;;1.38;;
15142;SDS011;7672;50.834;6.286;2023-08-12T09:31:25;1.60;;;1.50;;
15142;SDS011;7672;50.834;6.286;2023-08-12T09:33:58;1.40;;;1.30;;
15142;SDS011;7672;50.834;6.286;2023-08-12T09:36:30;1.58;;;1.25;;
15142;SDS011;7672;50.834;6.286;2023-08-12T09:38:58;2.05;;;1.17;;
15142;SDS011;7672;50.834;6.286;2023-08-12T09:41:28;3.47;;;1.60;;
15142;SDS011;7672;50.834;6.286;2023-08-12T09:43:55;1.13;;;1.13;;
15142;SDS011;7672;50.834;6.286;2023-08-12T09:46:25;1.75;;;1.35;;
15142;SDS011;7672;50.834;6.286;2023-08-12T09:48:54;2.75;;;1.25;;
15142;SDS011;7672;50.834;6.286;2023-08-12T09:51:21;1.42;;;1.33;;
15142;SDS011;7672;50.834;6.286;2023-08-12T09:53:49;2.40;;;1.25;;
15142;SDS011;7672;50.834;6.286;2023-08-12T09:56:18;1.58;;;1.48;;
15142;SDS011;7672;50.834;6.286;2023-08-12T09:58:49;3.63;;;1.20;;
15142;SDS011;7672;50.834;6.286;2023-08-12T10:01:19;1.65;;;1.10;;
15142;SDS011;7672;50.834;6.286;2023-08-12T10:03:48;1.35;;;1.13;;
15142;SDS011;7672;50.834;6.286;2023-08-12T10:06:20;2.13;;;1.42;;
15142;SDS011;7672;50.834;6.286;2023-08-12T10:08:47;1.45;;;1.35;;
15142;SDS011;7672;50.834;6.286;2023-08-12T10:11:16;1.23;;;1.13;;
15142;SDS011;7672;50.834;6.286;2023-08-12T10:13:44;1.42;;;1.33;;
15142;SDS011;7672;50.834;6.286;2023-08-12T10:16:11;1.80;;;1.42;;
15142;SDS011;7672;50.834;6.286;2023-08-12T10:18:40;2.53;;;1.60;;
15142;SDS011;7672;50.834;6.286;2023-08-12T10:21:08;1.30;;;1.25;;
15142;SDS011;7672;50.834;6.286;2023-08-12T10:23:41;2.40;;;1.48;;
15142;SDS011;7672;50.834;6.286;2023-08-12T10:26:15;1.88;;;1.20;;
15142;SDS011;7672;50.834;6.286;2023-08-12T10:28:44;1.50;;;1.40;;
15142;SDS011;7672;50.834;6.286;2023-08-12T10:31:11;1.73;;;1.40;;
15142;SDS011;7672;50.834;6.286;2023-08-12T10:33:38;1.40;;;1.30;;
15142;SDS011;7672;50.834;6.286;2023-08-12T10:36:06;3.78;;;1.60;;
15142;SDS011;7672;50.834;6.286;2023-08-12T10:38:35;7.18;;;4.38;;
15142;SDS011;7672;50.834;6.286;2023-08-12T10:41:15;2.63;;;1.70;;
15142;SDS011;7672;50.834;6.286;2023-08-12T10:46:34;1.60;;;1.50;;
15142;SDS011;7672;50.834;6.286;2023-08-12T10:49:07;9.13;;;1.77;;
15142;SDS011;7672;50.834;6.286;2023-08-12T10:51:50;1.70;;;1.60;;
15142;SDS011;7672;50.834;6.286;2023-08-12T10:54:25;2.42;;;1.75;;
15142;SDS011;7672;50.834;6.286;2023-08-12T11:02:15;1.70;;;1.60;;
15142;SDS011;7672;50.834;6.286;2023-08-12T11:05:03;2.53;;;1.67;;
15142;SDS011;7672;50.834;6.286;2023-08-12T11:10:25;1.73;;;1.63;;
15142;SDS011;7672;50.834;6.286;2023-08-12T11:13:00;4.28;;;1.80;;
15142;SDS011;7672;50.834;6.286;2023-08-12T11:18:09;1.83;;;1.70;;
15142;SDS011;7672;50.834;6.286;2023-08-12T11:20:39;1.92;;;1.70;;
15142;SDS011;7672;50.834;6.286;2023-08-12T11:23:07;2.75;;;1.70;;
15142;SDS011;7672;50.834;6.286;2023-08-12T11:25:47;2.30;;;1.92;;
15142;SDS011;7672;50.834;6.286;2023-08-12T11:28:17;9.50;;;8.68;;
15142;SDS011;7672;50.834;6.286;2023-08-12T11:30:46;1.98;;;1.88;;
15142;SDS011;7672;50.834;6.286;2023-08-12T11:33:16;2.28;;;1.63;;
15142;SDS011;7672;50.834;6.286;2023-08-12T11:35:47;1.88;;;1.77;;
15142;SDS011;7672;50.834;6.286;2023-08-12T11:38:14;1.77;;;1.67;;
15142;SDS011;7672;50.834;6.286;2023-08-12T11:40:42;2.30;;;1.70;;
15142;SDS011;7672;50.834;6.286;2023-08-12T11:43:09;2.53;;;1.67;;
15142;SDS011;7672;50.834;6.286;2023-08-12T11:45:36;1.70;;;1.60;;
15142;SDS011;7672;50.834;6.286;2023-08-12T11:48:09;1.85;;;1.30;;
15142;SDS011;7672;50.834;6.286;2023-08-12T11:50:36;1.23;;;1.13;;
15142;SDS011;7672;50.834;6.286;2023-08-12T11:53:05;1.80;;;1.23;;
15142;SDS011;7672;50.834;6.286;2023-08-12T11:55:32;1.45;;;1.20;;
15142;SDS011;7672;50.834;6.286;2023-08-12T11:58:00;3.08;;;1.48;;
15142;SDS011;7672;50.834;6.286;2023-08-12T12:00:27;2.33;;;1.33;;
15142;SDS011;7672;50.834;6.286;2023-08-12T12:02:55;1.40;;;1.30;;
15142;SDS011;7672;50.834;6.286;2023-08-12T12:05:32;1.60;;;1.50;;
15142;SDS011;7672;50.834;6.286;2023-08-12T12:08:01;1.45;;;1.35;;
15142;SDS011;7672;50.834;6.286;2023-08-12T12:10:31;1.38;;;1.20;;
15142;SDS011;7672;50.834;6.286;2023-08-12T12:13:02;1.13;;;1.02;;
15142;SDS011;7672;50.834;6.286;2023-08-12T12:15:32;0.98;;;0.93;;
15142;SDS011;7672;50.834;6.286;2023-08-12T12:18:10;0.70;;;0.70;;
15142;SDS011;7672;50.834;6.286;2023-08-12T12:20:55;2.70;;;0.65;;
15142;SDS011;7672;50.834;6.286;2023-08-12T12:23:30;0.98;;;0.70;;
15142;SDS011;7672;50.834;6.286;2023-08-12T12:26:01;0.82;;;0.80;;
15142;SDS011;7672;50.834;6.286;2023-08-12T12:28:30;1.00;;;0.90;;
15142;SDS011;7672;50.834;6.286;2023-08-12T12:30:57;1.08;;;0.60;;
15142;SDS011;7672;50.834;6.286;2023-08-12T12:33:24;2.58;;;0.73;;
15142;SDS011;7672;50.834;6.286;2023-08-12T12:35:51;1.30;;;0.80;;
15142;SDS011;7672;50.834;6.286;2023-08-12T12:38:26;1.35;;;1.10;;
15142;SDS011;7672;50.834;6.286;2023-08-12T12:40:53;1.25;;;0.73;;
15142;SDS011;7672;50.834;6.286;2023-08-12T12:43:20;1.60;;;1.10;;
15142;SDS011;7672;50.834;6.286;2023-08-12T12:45:47;1.17;;;1.13;;
15142;SDS011;7672;50.834;6.286;2023-08-12T12:48:14;1.58;;;1.10;;
15142;SDS011;7672;50.834;6.286;2023-08-12T12:50:42;1.27;;;0.93;;
15142;SDS011;7672;50.834;6.286;2023-08-12T12:53:08;1.52;;;1.42;;
15142;SDS011;7672;50.834;6.286;2023-08-12T12:55:35;1.30;;;1.08;;
15142;SDS011;7672;50.834;6.286;2023-08-12T12:58:03;2.67;;;1.17;;
15142;SDS011;7672;50.834;6.286;2023-08-12T13:00:30;1.00;;;1.00;;
15142;SDS011;7672;50.834;6.286;2023-08-12T13:02:57;2.30;;;1.25;;
15142;SDS011;7672;50.834;6.286;2023-08-12T13:05:25;1.95;;;1.08;;
15142;SDS011;7672;50.834;6.286;2023-08-12T13:07:52;1.20;;;0.75;;
15142;SDS011;7672;50.834;6.286;2023-08-12T13:10:19;1.45;;;0.70;;
15142;SDS011;7672;50.834;6.286;2023-08-12T13:12:46;0.95;;;0.80;;
15142;SDS011;7672;50.834;6.286;2023-08-12T13:15:13;1.10;;;1.00;;
15142;SDS011;7672;50.834;6.286;2023-08-12T13:17:40;1.50;;;1.02;;
15142;SDS011;7672;50.834;6.286;2023-08-12T13:20:07;1.42;;;0.85;;
15142;SDS011;7672;50.834;6.286;2023-08-12T13:22:36;1.17;;;0.70;;
15142;SDS011;7672;50.834;6.286;2023-08-12T13:25:03;1.58;;;0.93;;
15142;SDS011;7672;50.834;6.286;2023-08-12T13:27:31;1.98;;;1.00;;
15142;SDS011;7672;50.834;6.286;2023-08-12T13:29:58;1.50;;;1.02;;
15142;SDS011;7672;50.834;6.286;2023-08-12T13:32:25;1.15;;;0.85;;
15142;SDS011;7672;50.834;6.286;2023-08-12T13:34:52;4.20;;;0.98;;
15142;SDS011;7672;50.834;6.286;2023-08-12T13:37:19;1.00;;;0.90;;
15142;SDS011;7672;50.834;6.286;2023-08-12T13:39:46;2.95;;;1.00;;
15142;SDS011;7672;50.834;6.286;2023-08-12T13:42:13;2.67;;;0.98;;
15142;SDS011;7672;50.834;6.286;2023-08-12T13:44:40;1.25;;;1.10;;
15142;SDS011;7672;50.834;6.286;2023-08-12T13:47:07;5.65;;;1.45;;
15142;SDS011;7672;50.834;6.286;2023-08-12T13:49:34;1.00;;;0.88;;
15142;SDS011;7672;50.834;6.286;2023-08-12T13:52:01;2.05;;;1.13;;
15142;SDS011;7672;50.834;6.286;2023-08-12T13:54:29;1.15;;;1.00;;
15142;SDS011;7672;50.834;6.286;2023-08-12T13:56:56;3.35;;;1.00;;
15142;SDS011;7672;50.834;6.286;2023-08-12T13:59:23;1.25;;;0.90;;
15142;SDS011;7672;50.834;6.286;2023-08-12T14:01:50;1.63;;;1.02;;
15142;SDS011;7672;50.834;6.286;2023-08-12T14:04:17;1.30;;;0.98;;
15142;SDS011;7672;50.834;6.286;2023-08-12T14:06:44;1.85;;;1.10;;
15142;SDS011;7672;50.834;6.286;2023-08-12T14:09:12;6.45;;;1.40;;
15142;SDS011;7672;50.834;6.286;2023-08-12T14:11:40;1.35;;;0.90;;
15142;SDS011;7672;50.834;6.286;2023-08-12T14:14:07;3.83;;;1.20;;
15142;SDS011;7672;50.834;6.286;2023-08-12T14:16:35;1.63;;;1.10;;
15142;SDS011;7672;50.834;6.286;2023-08-12T14:19:02;2.35;;;1.00;;
15142;SDS011;7672;50.834;6.286;2023-08-12T14:21:29;1.85;;;1.05;;
15142;SDS011;7672;50.834;6.286;2023-08-12T14:23:56;3.25;;;1.13;;
15142;SDS011;7672;50.834;6.286;2023-08-12T14:26:23;2.20;;;1.20;;
15142;SDS011;7672;50.834;6.286;2023-08-12T14:28:50;3.95;;;1.30;;
15142;SDS011;7672;50.834;6.286;2023-08-12T14:31:17;2.00;;;1.27;;
15142;SDS011;7672;50.834;6.286;2023-08-12T14:33:45;4.95;;;1.75;;
15142;SDS011;7672;50.834;6.286;2023-08-12T14:36:12;3.92;;;1.42;;
15142;SDS011;7672;50.834;6.286;2023-08-12T14:38:39;3.33;;;1.60;;
15142;SDS011;7672;50.834;6.286;2023-08-12T14:41:06;4.53;;;1.90;;
15142;SDS011;7672;50.834;6.286;2023-08-12T14:43:33;1.15;;;1.13;;
15142;SDS011;7672;50.834;6.286;2023-08-12T14:46:00;5.63;;;1.90;;
15142;SDS011;7672;50.834;6.286;2023-08-12T14:48:27;3.97;;;1.55;;
15142;SDS011;7672;50.834;6.286;2023-08-12T14:50:55;4.93;;;1.55;;
15142;SDS011;7672;50.834;6.286;2023-08-12T14:53:22;4.43;;;1.70;;
15142;SDS011;7672;50.834;6.286;2023-08-12T14:55:50;2.17;;;1.23;;
15142;SDS011;7672;50.834;6.286;2023-08-12T14:58:17;4.63;;;1.80;;
15142;SDS011;7672;50.834;6.286;2023-08-12T15:00:48;3.35;;;1.30;;
15142;SDS011;7672;50.834;6.286;2023-08-12T15:03:15;4.22;;;2.40;;
15142;SDS011;7672;50.834;6.286;2023-08-12T15:05:42;4.88;;;2.00;;
15142;SDS011;7672;50.834;6.286;2023-08-12T15:08:09;1.60;;;1.50;;
15142;SDS011;7672;50.834;6.286;2023-08-12T15:10:37;3.75;;;1.42;;
15142;SDS011;7672;50.834;6.286;2023-08-12T15:13:04;2.58;;;1.52;;
15142;SDS011;7672;50.834;6.286;2023-08-12T15:15:31;2.20;;;1.48;;
15142;SDS011;7672;50.834;6.286;2023-08-12T15:17:58;1.98;;;1.70;;